sensor_id;sensor_type;location;lat;lon;timestamp;P1;durP1;ratioP1;P2;durP2;ratioP2
20890;SDS011;10605;52.968;8.844;2023-11-21T00:00:33;47.20;;;21.13;;
20890;SDS011;10605;52.968;8.844;2023-11-21T00:02:59;53.40;;;20.73;;
20890;SDS011;10605;52.968;8.844;2023-11-21T00:05:24;57.25;;;22.50;;
20890;SDS011;10605;52.968;8.844;2023-11-21T00:07:50;45.80;;;20.90;;
20890;SDS011;10605;52.968;8.844;2023-11-21T00:10:16;56.53;;;20.70;;
20890;SDS011;10605;52.968;8.844;2023-11-21T00:12:42;56.70;;;20.20;;
20890;SDS011;10605;52.968;8.844;2023-11-21T00:15:08;49.55;;;19.10;;
20890;SDS011;10605;52.968;8.844;2023-11-21T00:17:35;47.65;;;19.77;;
20890;SDS011;10605;52.968;8.844;2023-11-21T00:20:02;48.38;;;19.80;;
20890;SDS011;10605;52.968;8.844;2023-11-21T00:22:31;48.75;;;19.83;;
20890;SDS011;10605;52.968;8.844;2023-11-21T00:25:00;61.33;;;20.52;;
20890;SDS011;10605;52.968;8.844;2023-11-21T00:27:28;49.20;;;20.52;;
20890;SDS011;10605;52.968;8.844;2023-11-21T00:29:54;45.58;;;20.40;;
20890;SDS011;10605;52.968;8.844;2023-11-21T00:32:20;52.55;;;22.05;;
20890;SDS011;10605;52.968;8.844;2023-11-21T00:34:45;51.03;;;20.98;;
20890;SDS011;10605;52.968;8.844;2023-11-21T00:37:11;53.38;;;20.65;;
20890;SDS011;10605;52.968;8.844;2023-11-21T00:39:37;45.20;;;20.30;;
20890;SDS011;10605;52.968;8.844;2023-11-21T00:42:02;42.28;;;20.42;;
20890;SDS011;10605;52.968;8.844;2023-11-21T00:44:29;46.40;;;20.95;;
20890;SDS011;10605;52.968;8.844;2023-11-21T00:46:55;46.20;;;20.50;;
20890;SDS011;10605;52.968;8.844;2023-11-21T00:49:21;47.03;;;20.25;;
20890;SDS011;10605;52.968;8.844;2023-11-21T00:51:46;44.85;;;20.25;;
20890;SDS011;10605;52.968;8.844;2023-11-21T00:54:12;47.10;;;20.33;;
20890;SDS011;10605;52.968;8.844;2023-11-21T00:56:37;53.05;;;22.10;;
20890;SDS011;10605;52.968;8.844;2023-11-21T00:59:05;50.30;;;20.35;;
20890;SDS011;10605;52.968;8.844;2023-11-21T01:01:30;49.80;;;20.02;;
20890;SDS011;10605;52.968;8.844;2023-11-21T01:03:56;57.35;;;22.88;;
20890;SDS011;10605;52.968;8.844;2023-11-21T01:06:21;45.60;;;20.90;;
20890;SDS011;10605;52.968;8.844;2023-11-21T01:08:47;52.13;;;21.48;;
20890;SDS011;10605;52.968;8.844;2023-11-21T01:11:13;48.45;;;21.15;;
20890;SDS011;10605;52.968;8.844;2023-11-21T01:13:39;53.72;;;20.23;;
20890;SDS011;10605;52.968;8.844;2023-11-21T01:16:05;47.17;;;21.77;;
20890;SDS011;10605;52.968;8.844;2023-11-21T01:18:31;54.45;;;21.80;;
20890;SDS011;10605;52.968;8.844;2023-11-21T01:20:57;46.05;;;21.83;;
20890;SDS011;10605;52.968;8.844;2023-11-21T01:23:25;52.05;;;21.77;;
20890;SDS011;10605;52.968;8.844;2023-11-21T01:25:51;57.10;;;21.70;;
20890;SDS011;10605;52.968;8.844;2023-11-21T01:28:17;44.95;;;21.35;;
20890;SDS011;10605;52.968;8.844;2023-11-21T01:30:44;51.97;;;22.92;;
20890;SDS011;10605;52.968;8.844;2023-11-21T01:33:10;45.25;;;21.45;;
20890;SDS011;10605;52.968;8.844;2023-11-21T01:35:36;49.08;;;22.10;;
20890;SDS011;10605;52.968;8.844;2023-11-21T01:38:02;54.80;;;22.05;;
20890;SDS011;10605;52.968;8.844;2023-11-21T01:40:29;51.92;;;21.90;;
20890;SDS011;10605;52.968;8.844;2023-11-21T01:42:55;54.17;;;22.73;;
20890;SDS011;10605;52.968;8.844;2023-11-21T01:45:21;48.88;;;21.80;;
20890;SDS011;10605;52.968;8.844;2023-11-21T01:47:46;51.15;;;22.73;;
20890;SDS011;10605;52.968;8.844;2023-11-21T01:50:15;55.00;;;22.60;;
20890;SDS011;10605;52.968;8.844;2023-11-21T01:52:43;50.00;;;22.20;;
20890;SDS011;10605;52.968;8.844;2023-11-21T01:55:12;67.25;;;23.67;;
20890;SDS011;10605;52.968;8.844;2023-11-21T01:57:43;56.92;;;24.27;;
20890;SDS011;10605;52.968;8.844;2023-11-21T02:00:09;66.43;;;24.02;;
20890;SDS011;10605;52.968;8.844;2023-11-21T02:02:44;61.03;;;24.00;;
20890;SDS011;10605;52.968;8.844;2023-11-21T02:05:11;58.30;;;24.55;;
20890;SDS011;10605;52.968;8.844;2023-11-21T02:07:39;66.35;;;25.17;;
20890;SDS011;10605;52.968;8.844;2023-11-21T02:10:06;58.45;;;22.65;;
20890;SDS011;10605;52.968;8.844;2023-11-21T02:12:32;60.38;;;24.88;;
20890;SDS011;10605;52.968;8.844;2023-11-21T02:14:59;57.50;;;25.65;;
20890;SDS011;10605;52.968;8.844;2023-11-21T02:17:24;60.63;;;25.13;;
20890;SDS011;10605;52.968;8.844;2023-11-21T02:19:52;58.53;;;25.50;;
20890;SDS011;10605;52.968;8.844;2023-11-21T02:22:18;62.80;;;26.80;;
20890;SDS011;10605;52.968;8.844;2023-11-21T02:24:45;54.80;;;24.52;;
20890;SDS011;10605;52.968;8.844;2023-11-21T02:27:12;58.42;;;24.38;;
20890;SDS011;10605;52.968;8.844;2023-11-21T02:29:38;74.25;;;27.40;;
20890;SDS011;10605;52.968;8.844;2023-11-21T02:32:04;62.22;;;25.52;;
20890;SDS011;10605;52.968;8.844;2023-11-21T02:34:30;68.80;;;26.15;;
20890;SDS011;10605;52.968;8.844;2023-11-21T02:36:56;62.35;;;26.45;;
20890;SDS011;10605;52.968;8.844;2023-11-21T02:39:22;58.80;;;24.20;;
20890;SDS011;10605;52.968;8.844;2023-11-21T02:41:49;61.78;;;25.27;;
20890;SDS011;10605;52.968;8.844;2023-11-21T02:44:15;59.53;;;25.60;;
20890;SDS011;10605;52.968;8.844;2023-11-21T02:46:40;61.80;;;24.75;;
20890;SDS011;10605;52.968;8.844;2023-11-21T02:49:06;48.33;;;23.70;;
20890;SDS011;10605;52.968;8.844;2023-11-21T02:51:32;59.55;;;24.88;;
20890;SDS011;10605;52.968;8.844;2023-11-21T02:53:58;56.20;;;24.77;;
20890;SDS011;10605;52.968;8.844;2023-11-21T02:56:26;52.75;;;25.13;;
20890;SDS011;10605;52.968;8.844;2023-11-21T02:58:51;60.72;;;26.15;;
20890;SDS011;10605;52.968;8.844;2023-11-21T03:01:17;56.47;;;25.80;;
20890;SDS011;10605;52.968;8.844;2023-11-21T03:03:43;56.88;;;26.80;;
20890;SDS011;10605;52.968;8.844;2023-11-21T03:06:09;51.42;;;26.63;;
20890;SDS011;10605;52.968;8.844;2023-11-21T03:08:35;55.95;;;27.55;;
20890;SDS011;10605;52.968;8.844;2023-11-21T03:11:00;66.22;;;28.20;;
20890;SDS011;10605;52.968;8.844;2023-11-21T03:13:28;55.25;;;27.25;;
20890;SDS011;10605;52.968;8.844;2023-11-21T03:15:54;62.17;;;27.80;;
20890;SDS011;10605;52.968;8.844;2023-11-21T03:18:20;63.60;;;27.10;;
20890;SDS011;10605;52.968;8.844;2023-11-21T03:20:47;65.75;;;29.83;;
20890;SDS011;10605;52.968;8.844;2023-11-21T03:23:12;63.08;;;30.25;;
20890;SDS011;10605;52.968;8.844;2023-11-21T03:25:38;69.53;;;31.60;;
20890;SDS011;10605;52.968;8.844;2023-11-21T03:28:04;66.70;;;31.38;;
20890;SDS011;10605;52.968;8.844;2023-11-21T03:30:29;62.28;;;30.63;;
20890;SDS011;10605;52.968;8.844;2023-11-21T03:32:55;62.30;;;28.70;;
20890;SDS011;10605;52.968;8.844;2023-11-21T03:35:21;65.05;;;28.15;;
20890;SDS011;10605;52.968;8.844;2023-11-21T03:37:47;53.53;;;27.30;;
20890;SDS011;10605;52.968;8.844;2023-11-21T03:40:13;55.13;;;24.25;;
20890;SDS011;10605;52.968;8.844;2023-11-21T03:42:39;45.70;;;23.05;;
20890;SDS011;10605;52.968;8.844;2023-11-21T03:45:05;41.33;;;22.42;;
20890;SDS011;10605;52.968;8.844;2023-11-21T03:47:31;47.97;;;22.25;;
20890;SDS011;10605;52.968;8.844;2023-11-21T03:49:57;40.88;;;21.58;;
20890;SDS011;10605;52.968;8.844;2023-11-21T03:52:22;40.22;;;20.75;;
20890;SDS011;10605;52.968;8.844;2023-11-21T03:54:48;42.90;;;21.95;;
20890;SDS011;10605;52.968;8.844;2023-11-21T03:57:14;42.33;;;21.05;;
20890;SDS011;10605;52.968;8.844;2023-11-21T03:59:40;42.78;;;21.65;;
20890;SDS011;10605;52.968;8.844;2023-11-21T04:02:06;50.42;;;23.08;;
20890;SDS011;10605;52.968;8.844;2023-11-21T04:04:32;48.67;;;22.92;;
20890;SDS011;10605;52.968;8.844;2023-11-21T04:06:58;47.95;;;23.40;;
20890;SDS011;10605;52.968;8.844;2023-11-21T04:09:24;55.40;;;25.48;;
20890;SDS011;10605;52.968;8.844;2023-11-21T04:11:50;58.67;;;26.05;;
20890;SDS011;10605;52.968;8.844;2023-11-21T04:14:16;49.83;;;25.02;;
20890;SDS011;10605;52.968;8.844;2023-11-21T04:16:42;52.90;;;26.65;;
20890;SDS011;10605;52.968;8.844;2023-11-21T04:19:08;46.78;;;21.83;;
20890;SDS011;10605;52.968;8.844;2023-11-21T04:21:39;45.65;;;21.40;;
20890;SDS011;10605;52.968;8.844;2023-11-21T04:24:08;34.28;;;18.55;;
20890;SDS011;10605;52.968;8.844;2023-11-21T04:26:34;18.92;;;12.52;;
20890;SDS011;10605;52.968;8.844;2023-11-21T04:29:00;14.73;;;9.75;;
20890;SDS011;10605;52.968;8.844;2023-11-21T04:31:25;14.23;;;8.93;;
20890;SDS011;10605;52.968;8.844;2023-11-21T04:33:51;14.40;;;8.18;;
20890;SDS011;10605;52.968;8.844;2023-11-21T04:36:17;10.82;;;8.73;;
20890;SDS011;10605;52.968;8.844;2023-11-21T04:38:42;16.83;;;9.27;;
20890;SDS011;10605;52.968;8.844;2023-11-21T04:41:09;24.13;;;10.23;;
20890;SDS011;10605;52.968;8.844;2023-11-21T04:43:34;24.30;;;12.07;;
20890;SDS011;10605;52.968;8.844;2023-11-21T04:46:00;16.27;;;10.98;;
20890;SDS011;10605;52.968;8.844;2023-11-21T04:48:27;20.45;;;12.32;;
20890;SDS011;10605;52.968;8.844;2023-11-21T04:50:52;25.27;;;14.00;;
20890;SDS011;10605;52.968;8.844;2023-11-21T04:53:18;26.85;;;14.13;;
20890;SDS011;10605;52.968;8.844;2023-11-21T04:55:44;21.25;;;12.02;;
20890;SDS011;10605;52.968;8.844;2023-11-21T04:58:10;16.52;;;11.30;;
20890;SDS011;10605;52.968;8.844;2023-11-21T05:00:37;15.98;;;11.25;;
20890;SDS011;10605;52.968;8.844;2023-11-21T05:03:03;15.45;;;10.95;;
20890;SDS011;10605;52.968;8.844;2023-11-21T05:05:29;12.75;;;9.63;;
20890;SDS011;10605;52.968;8.844;2023-11-21T05:07:55;12.15;;;9.68;;
20890;SDS011;10605;52.968;8.844;2023-11-21T05:10:21;13.27;;;9.38;;
20890;SDS011;10605;52.968;8.844;2023-11-21T05:12:49;11.18;;;8.93;;
20890;SDS011;10605;52.968;8.844;2023-11-21T05:15:15;11.18;;;8.77;;
20890;SDS011;10605;52.968;8.844;2023-11-21T05:17:44;13.50;;;10.23;;
20890;SDS011;10605;52.968;8.844;2023-11-21T05:20:11;20.08;;;10.80;;
20890;SDS011;10605;52.968;8.844;2023-11-21T05:22:38;16.52;;;11.43;;
20890;SDS011;10605;52.968;8.844;2023-11-21T05:25:05;23.42;;;13.27;;
20890;SDS011;10605;52.968;8.844;2023-11-21T05:27:32;22.00;;;14.13;;
20890;SDS011;10605;52.968;8.844;2023-11-21T05:29:59;20.08;;;13.27;;
20890;SDS011;10605;52.968;8.844;2023-11-21T05:32:30;22.38;;;14.57;;
20890;SDS011;10605;52.968;8.844;2023-11-21T05:34:56;25.27;;;13.93;;
20890;SDS011;10605;52.968;8.844;2023-11-21T05:37:22;20.40;;;15.00;;
20890;SDS011;10605;52.968;8.844;2023-11-21T05:39:48;24.00;;;13.32;;
20890;SDS011;10605;52.968;8.844;2023-11-21T05:42:14;20.55;;;13.85;;
20890;SDS011;10605;52.968;8.844;2023-11-21T05:44:42;22.38;;;13.23;;
20890;SDS011;10605;52.968;8.844;2023-11-21T05:47:08;23.52;;;14.75;;
20890;SDS011;10605;52.968;8.844;2023-11-21T05:49:34;26.02;;;15.20;;
20890;SDS011;10605;52.968;8.844;2023-11-21T05:52:00;26.80;;;15.70;;
20890;SDS011;10605;52.968;8.844;2023-11-21T05:54:26;27.02;;;16.85;;
20890;SDS011;10605;52.968;8.844;2023-11-21T05:56:52;24.77;;;15.60;;
20890;SDS011;10605;52.968;8.844;2023-11-21T05:59:17;25.38;;;15.90;;
20890;SDS011;10605;52.968;8.844;2023-11-21T06:01:43;22.13;;;14.45;;
20890;SDS011;10605;52.968;8.844;2023-11-21T06:04:10;20.52;;;13.95;;
20890;SDS011;10605;52.968;8.844;2023-11-21T06:06:37;25.75;;;16.05;;
20890;SDS011;10605;52.968;8.844;2023-11-21T06:09:04;22.30;;;15.00;;
20890;SDS011;10605;52.968;8.844;2023-11-21T06:11:30;21.17;;;14.88;;
20890;SDS011;10605;52.968;8.844;2023-11-21T06:13:56;22.50;;;14.85;;
20890;SDS011;10605;52.968;8.844;2023-11-21T06:16:23;19.92;;;14.43;;
20890;SDS011;10605;52.968;8.844;2023-11-21T06:18:49;19.90;;;13.68;;
20890;SDS011;10605;52.968;8.844;2023-11-21T06:21:14;21.35;;;14.25;;
20890;SDS011;10605;52.968;8.844;2023-11-21T06:23:41;16.42;;;13.40;;
20890;SDS011;10605;52.968;8.844;2023-11-21T06:26:07;16.15;;;12.75;;
20890;SDS011;10605;52.968;8.844;2023-11-21T06:28:34;17.83;;;12.82;;
20890;SDS011;10605;52.968;8.844;2023-11-21T06:31:01;14.18;;;11.50;;
20890;SDS011;10605;52.968;8.844;2023-11-21T06:33:30;13.45;;;11.77;;
20890;SDS011;10605;52.968;8.844;2023-11-21T06:35:59;12.88;;;11.27;;
20890;SDS011;10605;52.968;8.844;2023-11-21T06:38:28;12.73;;;10.88;;
20890;SDS011;10605;52.968;8.844;2023-11-21T06:40:55;11.68;;;10.48;;
20890;SDS011;10605;52.968;8.844;2023-11-21T06:43:23;13.77;;;11.63;;
20890;SDS011;10605;52.968;8.844;2023-11-21T06:45:48;14.32;;;11.07;;
20890;SDS011;10605;52.968;8.844;2023-11-21T06:48:14;12.65;;;11.35;;
20890;SDS011;10605;52.968;8.844;2023-11-21T06:50:40;15.30;;;11.70;;
20890;SDS011;10605;52.968;8.844;2023-11-21T06:53:06;14.70;;;12.30;;
20890;SDS011;10605;52.968;8.844;2023-11-21T06:55:33;14.30;;;12.18;;
20890;SDS011;10605;52.968;8.844;2023-11-21T06:57:59;17.95;;;12.80;;
20890;SDS011;10605;52.968;8.844;2023-11-21T07:00:25;14.18;;;12.65;;
20890;SDS011;10605;52.968;8.844;2023-11-21T07:02:53;17.90;;;12.88;;
20890;SDS011;10605;52.968;8.844;2023-11-21T07:05:19;13.73;;;11.65;;
20890;SDS011;10605;52.968;8.844;2023-11-21T07:07:46;14.40;;;12.40;;
20890;SDS011;10605;52.968;8.844;2023-11-21T07:10:13;13.73;;;12.30;;
20890;SDS011;10605;52.968;8.844;2023-11-21T07:12:39;18.98;;;13.20;;
20890;SDS011;10605;52.968;8.844;2023-11-21T07:15:05;16.17;;;13.23;;
20890;SDS011;10605;52.968;8.844;2023-11-21T07:17:34;16.50;;;12.73;;
20890;SDS011;10605;52.968;8.844;2023-11-21T07:20:00;15.77;;;13.20;;
20890;SDS011;10605;52.968;8.844;2023-11-21T07:22:26;23.13;;;12.68;;
20890;SDS011;10605;52.968;8.844;2023-11-21T07:24:52;15.55;;;13.45;;
20890;SDS011;10605;52.968;8.844;2023-11-21T07:27:18;17.17;;;12.88;;
20890;SDS011;10605;52.968;8.844;2023-11-21T07:29:44;14.70;;;13.07;;
20890;SDS011;10605;52.968;8.844;2023-11-21T07:32:10;17.08;;;12.57;;
20890;SDS011;10605;52.968;8.844;2023-11-21T07:34:36;16.60;;;13.48;;
20890;SDS011;10605;52.968;8.844;2023-11-21T07:37:02;16.42;;;13.95;;
20890;SDS011;10605;52.968;8.844;2023-11-21T07:39:28;16.38;;;13.65;;
20890;SDS011;10605;52.968;8.844;2023-11-21T07:41:53;16.88;;;13.77;;
20890;SDS011;10605;52.968;8.844;2023-11-21T07:44:20;17.02;;;13.32;;
20890;SDS011;10605;52.968;8.844;2023-11-21T07:46:46;18.30;;;14.27;;
20890;SDS011;10605;52.968;8.844;2023-11-21T07:49:12;16.50;;;13.68;;
20890;SDS011;10605;52.968;8.844;2023-11-21T07:51:42;13.77;;;12.07;;
20890;SDS011;10605;52.968;8.844;2023-11-21T07:54:08;14.77;;;13.05;;
20890;SDS011;10605;52.968;8.844;2023-11-21T07:56:35;16.45;;;12.23;;
20890;SDS011;10605;52.968;8.844;2023-11-21T07:59:01;15.95;;;13.02;;
20890;SDS011;10605;52.968;8.844;2023-11-21T08:01:26;14.05;;;12.55;;
20890;SDS011;10605;52.968;8.844;2023-11-21T08:03:53;13.40;;;11.95;;
20890;SDS011;10605;52.968;8.844;2023-11-21T08:06:21;17.35;;;13.43;;
20890;SDS011;10605;52.968;8.844;2023-11-21T08:08:49;18.17;;;13.32;;
20890;SDS011;10605;52.968;8.844;2023-11-21T08:11:14;15.07;;;12.90;;
20890;SDS011;10605;52.968;8.844;2023-11-21T08:13:40;13.65;;;12.30;;
20890;SDS011;10605;52.968;8.844;2023-11-21T08:16:06;20.35;;;13.40;;
20890;SDS011;10605;52.968;8.844;2023-11-21T08:18:32;20.67;;;13.35;;
20890;SDS011;10605;52.968;8.844;2023-11-21T08:20:59;14.85;;;13.15;;
20890;SDS011;10605;52.968;8.844;2023-11-21T08:23:25;15.93;;;12.88;;
20890;SDS011;10605;52.968;8.844;2023-11-21T08:25:54;16.40;;;13.40;;
20890;SDS011;10605;52.968;8.844;2023-11-21T08:28:20;16.15;;;13.52;;
20890;SDS011;10605;52.968;8.844;2023-11-21T08:30:51;17.63;;;12.48;;
20890;SDS011;10605;52.968;8.844;2023-11-21T08:33:17;14.80;;;12.27;;
20890;SDS011;10605;52.968;8.844;2023-11-21T08:35:43;13.75;;;12.25;;
20890;SDS011;10605;52.968;8.844;2023-11-21T08:38:09;18.10;;;12.70;;
20890;SDS011;10605;52.968;8.844;2023-11-21T08:40:35;14.77;;;12.15;;
20890;SDS011;10605;52.968;8.844;2023-11-21T08:43:01;13.38;;;11.98;;
20890;SDS011;10605;52.968;8.844;2023-11-21T08:45:29;15.27;;;12.10;;
20890;SDS011;10605;52.968;8.844;2023-11-21T08:47:55;13.85;;;11.73;;
20890;SDS011;10605;52.968;8.844;2023-11-21T08:50:21;12.82;;;11.60;;
20890;SDS011;10605;52.968;8.844;2023-11-21T08:52:47;12.85;;;11.57;;
20890;SDS011;10605;52.968;8.844;2023-11-21T08:55:13;13.32;;;11.93;;
20890;SDS011;10605;52.968;8.844;2023-11-21T08:57:39;12.20;;;10.90;;
20890;SDS011;10605;52.968;8.844;2023-11-21T09:00:07;13.77;;;12.38;;
20890;SDS011;10605;52.968;8.844;2023-11-21T09:02:42;16.45;;;11.80;;
20890;SDS011;10605;52.968;8.844;2023-11-21T09:05:09;12.43;;;11.23;;
20890;SDS011;10605;52.968;8.844;2023-11-21T09:07:36;12.50;;;11.20;;
20890;SDS011;10605;52.968;8.844;2023-11-21T09:10:03;15.02;;;11.00;;
20890;SDS011;10605;52.968;8.844;2023-11-21T09:12:32;14.13;;;11.57;;
20890;SDS011;10605;52.968;8.844;2023-11-21T09:15:03;13.10;;;10.77;;
20890;SDS011;10605;52.968;8.844;2023-11-21T09:17:32;11.95;;;10.85;;
20890;SDS011;10605;52.968;8.844;2023-11-21T09:19:59;12.27;;;10.98;;
20890;SDS011;10605;52.968;8.844;2023-11-21T09:22:25;11.55;;;10.45;;
20890;SDS011;10605;52.968;8.844;2023-11-21T09:24:53;12.27;;;11.05;;
20890;SDS011;10605;52.968;8.844;2023-11-21T09:27:19;13.65;;;11.07;;
20890;SDS011;10605;52.968;8.844;2023-11-21T09:29:45;11.82;;;10.63;;
20890;SDS011;10605;52.968;8.844;2023-11-21T09:32:12;10.65;;;9.68;;
20890;SDS011;10605;52.968;8.844;2023-11-21T09:34:39;11.18;;;9.82;;
20890;SDS011;10605;52.968;8.844;2023-11-21T09:37:05;10.90;;;9.95;;
20890;SDS011;10605;52.968;8.844;2023-11-21T09:39:31;11.18;;;10.07;;
20890;SDS011;10605;52.968;8.844;2023-11-21T09:42:03;14.68;;;10.35;;
20890;SDS011;10605;52.968;8.844;2023-11-21T09:44:35;11.13;;;9.80;;
20890;SDS011;10605;52.968;8.844;2023-11-21T09:47:14;12.63;;;10.60;;
20890;SDS011;10605;52.968;8.844;2023-11-21T09:49:41;12.35;;;10.10;;
20890;SDS011;10605;52.968;8.844;2023-11-21T09:52:12;10.93;;;9.88;;
20890;SDS011;10605;52.968;8.844;2023-11-21T09:54:46;11.15;;;10.00;;
20890;SDS011;10605;52.968;8.844;2023-11-21T09:57:12;11.93;;;10.25;;
20890;SDS011;10605;52.968;8.844;2023-11-21T09:59:39;12.38;;;9.90;;
20890;SDS011;10605;52.968;8.844;2023-11-21T10:02:06;11.73;;;10.40;;
20890;SDS011;10605;52.968;8.844;2023-11-21T10:04:35;11.00;;;9.80;;
20890;SDS011;10605;52.968;8.844;2023-11-21T10:07:01;11.07;;;10.00;;
20890;SDS011;10605;52.968;8.844;2023-11-21T10:09:28;10.32;;;9.32;;
20890;SDS011;10605;52.968;8.844;2023-11-21T10:11:54;10.63;;;9.45;;
20890;SDS011;10605;52.968;8.844;2023-11-21T10:14:21;10.43;;;9.52;;
20890;SDS011;10605;52.968;8.844;2023-11-21T10:16:51;10.55;;;9.40;;
20890;SDS011;10605;52.968;8.844;2023-11-21T10:19:18;10.95;;;9.07;;
20890;SDS011;10605;52.968;8.844;2023-11-21T10:21:45;11.13;;;9.20;;
20890;SDS011;10605;52.968;8.844;2023-11-21T10:24:11;13.05;;;9.45;;
20890;SDS011;10605;52.968;8.844;2023-11-21T10:26:37;9.57;;;8.77;;
20890;SDS011;10605;52.968;8.844;2023-11-21T10:29:03;13.18;;;9.65;;
20890;SDS011;10605;52.968;8.844;2023-11-21T10:31:32;10.02;;;9.23;;
20890;SDS011;10605;52.968;8.844;2023-11-21T10:34:13;12.77;;;9.30;;
20890;SDS011;10605;52.968;8.844;2023-11-21T10:36:40;10.25;;;9.00;;
20890;SDS011;10605;52.968;8.844;2023-11-21T10:39:06;11.88;;;9.52;;
20890;SDS011;10605;52.968;8.844;2023-11-21T10:41:32;9.77;;;8.82;;
20890;SDS011;10605;52.968;8.844;2023-11-21T10:43:57;10.55;;;9.45;;
20890;SDS011;10605;52.968;8.844;2023-11-21T10:46:23;9.65;;;8.75;;
20890;SDS011;10605;52.968;8.844;2023-11-21T10:48:54;10.32;;;9.43;;
20890;SDS011;10605;52.968;8.844;2023-11-21T10:51:21;11.15;;;9.30;;
20890;SDS011;10605;52.968;8.844;2023-11-21T10:53:47;9.30;;;8.50;;
20890;SDS011;10605;52.968;8.844;2023-11-21T10:56:15;9.75;;;8.73;;
20890;SDS011;10605;52.968;8.844;2023-11-21T10:58:44;10.38;;;9.05;;
20890;SDS011;10605;52.968;8.844;2023-11-21T11:01:10;12.35;;;8.85;;
20890;SDS011;10605;52.968;8.844;2023-11-21T11:03:39;9.38;;;8.50;;
20890;SDS011;10605;52.968;8.844;2023-11-21T11:06:06;10.23;;;9.20;;
20890;SDS011;10605;52.968;8.844;2023-11-21T11:08:36;9.18;;;8.13;;
20890;SDS011;10605;52.968;8.844;2023-11-21T11:11:02;9.38;;;8.68;;
20890;SDS011;10605;52.968;8.844;2023-11-21T11:13:30;13.48;;;9.05;;
20890;SDS011;10605;52.968;8.844;2023-11-21T11:15:59;11.55;;;9.50;;
20890;SDS011;10605;52.968;8.844;2023-11-21T11:18:32;10.65;;;9.55;;
20890;SDS011;10605;52.968;8.844;2023-11-21T11:21:23;11.57;;;9.88;;
20890;SDS011;10605;52.968;8.844;2023-11-21T11:29:23;10.23;;;9.13;;
20890;SDS011;10605;52.968;8.844;2023-11-21T11:37:25;10.10;;;9.30;;
20890;SDS011;10605;52.968;8.844;2023-11-21T11:39:52;11.45;;;10.05;;
20890;SDS011;10605;52.968;8.844;2023-11-21T11:42:19;10.82;;;9.73;;
20890;SDS011;10605;52.968;8.844;2023-11-21T11:44:48;10.23;;;9.27;;
20890;SDS011;10605;52.968;8.844;2023-11-21T11:52:37;10.63;;;9.73;;
20890;SDS011;10605;52.968;8.844;2023-11-21T11:55:11;10.07;;;9.10;;
20890;SDS011;10605;52.968;8.844;2023-11-21T11:57:45;10.07;;;9.18;;
20890;SDS011;10605;52.968;8.844;2023-11-21T12:02:55;9.75;;;8.95;;
20890;SDS011;10605;52.968;8.844;2023-11-21T12:05:27;9.38;;;8.57;;
20890;SDS011;10605;52.968;8.844;2023-11-21T12:07:53;8.98;;;8.20;;
20890;SDS011;10605;52.968;8.844;2023-11-21T12:10:27;9.25;;;8.50;;
20890;SDS011;10605;52.968;8.844;2023-11-21T12:15:23;9.02;;;8.30;;
20890;SDS011;10605;52.968;8.844;2023-11-21T12:17:50;8.57;;;7.70;;
20890;SDS011;10605;52.968;8.844;2023-11-21T12:20:20;8.70;;;7.93;;
20890;SDS011;10605;52.968;8.844;2023-11-21T12:22:48;8.48;;;7.78;;
20890;SDS011;10605;52.968;8.844;2023-11-21T12:25:15;9.50;;;8.68;;
20890;SDS011;10605;52.968;8.844;2023-11-21T12:27:47;11.45;;;8.05;;
20890;SDS011;10605;52.968;8.844;2023-11-21T12:30:17;8.93;;;7.72;;
20890;SDS011;10605;52.968;8.844;2023-11-21T12:32:44;8.07;;;7.35;;
20890;SDS011;10605;52.968;8.844;2023-11-21T12:35:11;8.15;;;7.53;;
20890;SDS011;10605;52.968;8.844;2023-11-21T12:37:40;8.60;;;7.45;;
20890;SDS011;10605;52.968;8.844;2023-11-21T12:40:09;8.05;;;7.28;;
20890;SDS011;10605;52.968;8.844;2023-11-21T12:42:47;9.70;;;8.02;;
20890;SDS011;10605;52.968;8.844;2023-11-21T12:45:18;7.85;;;6.60;;
20890;SDS011;10605;52.968;8.844;2023-11-21T12:47:50;8.02;;;7.38;;
20890;SDS011;10605;52.968;8.844;2023-11-21T12:50:23;8.30;;;7.53;;
20890;SDS011;10605;52.968;8.844;2023-11-21T12:52:54;8.80;;;6.72;;
20890;SDS011;10605;52.968;8.844;2023-11-21T12:55:23;8.25;;;7.45;;
20890;SDS011;10605;52.968;8.844;2023-11-21T12:57:53;7.80;;;7.20;;
20890;SDS011;10605;52.968;8.844;2023-11-21T13:00:28;10.20;;;7.63;;
20890;SDS011;10605;52.968;8.844;2023-11-21T13:02:58;11.15;;;8.02;;
20890;SDS011;10605;52.968;8.844;2023-11-21T13:05:25;8.70;;;7.80;;
20890;SDS011;10605;52.968;8.844;2023-11-21T13:08:04;9.50;;;7.90;;
20890;SDS011;10605;52.968;8.844;2023-11-21T13:10:33;8.07;;;7.30;;
20890;SDS011;10605;52.968;8.844;2023-11-21T13:13:02;8.10;;;7.30;;
20890;SDS011;10605;52.968;8.844;2023-11-21T13:15:30;9.27;;;8.35;;
20890;SDS011;10605;52.968;8.844;2023-11-21T13:17:57;6.72;;;6.18;;
20890;SDS011;10605;52.968;8.844;2023-11-21T13:20:27;6.43;;;5.82;;
20890;SDS011;10605;52.968;8.844;2023-11-21T13:22:53;5.47;;;5.07;;
20890;SDS011;10605;52.968;8.844;2023-11-21T13:25:23;4.78;;;4.35;;
20890;SDS011;10605;52.968;8.844;2023-11-21T13:27:59;4.97;;;4.60;;
20890;SDS011;10605;52.968;8.844;2023-11-21T13:30:25;4.90;;;4.50;;
20890;SDS011;10605;52.968;8.844;2023-11-21T13:32:53;4.55;;;4.25;;
20890;SDS011;10605;52.968;8.844;2023-11-21T13:35:22;4.82;;;4.43;;
20890;SDS011;10605;52.968;8.844;2023-11-21T13:38:04;4.85;;;4.35;;
20890;SDS011;10605;52.968;8.844;2023-11-21T13:40:31;5.13;;;4.60;;
20890;SDS011;10605;52.968;8.844;2023-11-21T13:42:59;5.10;;;4.65;;
20890;SDS011;10605;52.968;8.844;2023-11-21T13:45:29;5.38;;;4.88;;
20890;SDS011;10605;52.968;8.844;2023-11-21T13:47:55;4.78;;;4.43;;
20890;SDS011;10605;52.968;8.844;2023-11-21T13:50:26;4.70;;;4.40;;
20890;SDS011;10605;52.968;8.844;2023-11-21T13:52:58;4.53;;;4.20;;
20890;SDS011;10605;52.968;8.844;2023-11-21T13:55:29;6.25;;;4.47;;
20890;SDS011;10605;52.968;8.844;2023-11-21T13:57:54;5.03;;;4.38;;
20890;SDS011;10605;52.968;8.844;2023-11-21T14:00:20;4.72;;;4.43;;
20890;SDS011;10605;52.968;8.844;2023-11-21T14:03:04;4.82;;;4.43;;
20890;SDS011;10605;52.968;8.844;2023-11-21T14:05:35;4.55;;;4.25;;
20890;SDS011;10605;52.968;8.844;2023-11-21T14:08:01;5.68;;;4.85;;
20890;SDS011;10605;52.968;8.844;2023-11-21T14:10:30;5.70;;;4.30;;
20890;SDS011;10605;52.968;8.844;2023-11-21T14:13:11;4.20;;;3.80;;
20890;SDS011;10605;52.968;8.844;2023-11-21T14:15:38;4.95;;;4.35;;
20890;SDS011;10605;52.968;8.844;2023-11-21T14:18:08;4.93;;;4.60;;
20890;SDS011;10605;52.968;8.844;2023-11-21T14:20:36;7.18;;;4.13;;
20890;SDS011;10605;52.968;8.844;2023-11-21T14:23:05;4.30;;;4.00;;
20890;SDS011;10605;52.968;8.844;2023-11-21T14:25:34;6.97;;;4.85;;
20890;SDS011;10605;52.968;8.844;2023-11-21T14:28:02;4.90;;;4.40;;
20890;SDS011;10605;52.968;8.844;2023-11-21T14:30:28;4.97;;;4.53;;
20890;SDS011;10605;52.968;8.844;2023-11-21T14:32:57;4.95;;;4.55;;
20890;SDS011;10605;52.968;8.844;2023-11-21T14:35:26;4.60;;;4.20;;
20890;SDS011;10605;52.968;8.844;2023-11-21T14:37:52;6.30;;;4.22;;
20890;SDS011;10605;52.968;8.844;2023-11-21T14:40:17;4.82;;;4.43;;
20890;SDS011;10605;52.968;8.844;2023-11-21T14:42:49;4.60;;;4.30;;
20890;SDS011;10605;52.968;8.844;2023-11-21T14:45:17;4.10;;;3.80;;
20890;SDS011;10605;52.968;8.844;2023-11-21T14:47:45;4.22;;;3.92;;
20890;SDS011;10605;52.968;8.844;2023-11-21T14:50:20;4.00;;;3.70;;